sensor_id;sensor_type;location;lat;lon;timestamp;pressure;altitude;pressure_sealevel;temperature;humidity
77521;BME280;66633;47.628;19.158;2023-06-22T00:01:03;99938.97;;;29.34;48.23
77521;BME280;66633;47.628;19.158;2023-06-22T00:03:28;99938.97;;;29.34;48.23
77521;BME280;66633;47.628;19.158;2023-06-22T00:05:54;99938.97;;;29.34;48.23
77521;BME280;66633;47.628;19.158;2023-06-22T00:08:19;99938.97;;;29.34;48.23
77521;BME280;66633;47.628;19.158;2023-06-22T00:10:45;99938.97;;;29.34;48.23
77521;BME280;66633;47.628;19.158;2023-06-22T00:13:12;99938.97;;;29.34;48.23
77521;BME280;66633;47.628;19.158;2023-06-22T00:15:39;99938.97;;;29.34;48.23
77521;BME280;66633;47.628;19.158;2023-06-22T00:18:10;99938.97;;;29.34;48.23
77521;BME280;66633;47.628;19.158;2023-06-22T00:20:35;99938.97;;;29.34;48.23
77521;BME280;66633;47.628;19.158;2023-06-22T00:23:06;99938.97;;;29.34;48.23
77521;BME280;66633;47.628;19.158;2023-06-22T00:25:36;99938.97;;;29.34;48.23
77521;BME280;66633;47.628;19.158;2023-06-22T00:28:03;99938.97;;;29.34;48.23
77521;BME280;66633;47.628;19.158;2023-06-22T00:30:30;99938.97;;;29.34;48.23
77521;BME280;66633;47.628;19.158;2023-06-22T00:32:55;99938.97;;;29.34;48.23
77521;BME280;66633;47.628;19.158;2023-06-22T00:35:21;99938.97;;;29.34;48.23
77521;BME280;66633;47.628;19.158;2023-06-22T00:37:46;99938.97;;;29.34;48.23
77521;BME280;66633;47.628;19.158;2023-06-22T00:40:12;99938.97;;;29.34;48.23
77521;BME280;66633;47.628;19.158;2023-06-22T00:42:39;99938.97;;;29.34;48.23
77521;BME280;66633;47.628;19.158;2023-06-22T00:45:06;99938.97;;;29.34;48.23
77521;BME280;66633;47.628;19.158;2023-06-22T00:47:32;99938.97;;;29.34;48.23
77521;BME280;66633;47.628;19.158;2023-06-22T00:49:59;99938.97;;;29.34;48.23
77521;BME280;66633;47.628;19.158;2023-06-22T00:52:26;99938.97;;;29.34;48.23
77521;BME280;66633;47.628;19.158;2023-06-22T00:54:54;99938.97;;;29.34;48.23
77521;BME280;66633;47.628;19.158;2023-06-22T00:57:22;99938.97;;;29.34;48.23
77521;BME280;66633;47.628;19.158;2023-06-22T00:59:48;99938.97;;;29.34;48.23
77521;BME280;66633;47.628;19.158;2023-06-22T01:02:14;99938.97;;;29.34;48.23
77521;BME280;66633;47.628;19.158;2023-06-22T01:04:40;99938.97;;;29.34;48.23
77521;BME280;66633;47.628;19.158;2023-06-22T01:12:52;99938.97;;;29.34;48.23
77521;BME280;66633;47.628;19.158;2023-06-22T01:15:24;99938.97;;;29.34;48.23
77521;BME280;66633;47.628;19.158;2023-06-22T01:17:53;99938.97;;;29.34;48.23
77521;BME280;66633;47.628;19.158;2023-06-22T01:20:20;99938.97;;;29.34;48.23
77521;BME280;66633;47.628;19.158;2023-06-22T01:25:28;99938.97;;;29.34;48.23
77521;BME280;66633;47.628;19.158;2023-06-22T01:30:29;99938.97;;;29.34;48.23
77521;BME280;66633;47.628;19.158;2023-06-22T01:32:58;99938.97;;;29.34;48.23
77521;BME280;66633;47.628;19.158;2023-06-22T01:35:24;99938.97;;;29.34;48.23
77521;BME280;66633;47.628;19.158;2023-06-22T01:37:50;99938.97;;;29.34;48.23
77521;BME280;66633;47.628;19.158;2023-06-22T01:40:16;99938.97;;;29.34;48.23
77521;BME280;66633;47.628;19.158;2023-06-22T01:42:44;99938.97;;;29.34;48.23
77521;BME280;66633;47.628;19.158;2023-06-22T01:45:11;99938.97;;;29.34;48.23
77521;BME280;66633;47.628;19.158;2023-06-22T01:47:38;99938.97;;;29.34;48.23
77521;BME280;66633;47.628;19.158;2023-06-22T01:50:04;99938.97;;;29.34;48.23
77521;BME280;66633;47.628;19.158;2023-06-22T01:52:30;99938.97;;;29.34;48.23
77521;BME280;66633;47.628;19.158;2023-06-22T01:54:56;99938.97;;;29.34;48.23
77521;BME280;66633;47.628;19.158;2023-06-22T01:57:23;99938.97;;;29.34;48.23
77521;BME280;66633;47.628;19.158;2023-06-22T02:02:20;99938.97;;;29.34;48.23
77521;BME280;66633;47.628;19.158;2023-06-22T02:05:16;99938.97;;;29.34;48.23
77521;BME280;66633;47.628;19.158;2023-06-22T02:07:50;99938.97;;;29.34;48.23
77521;BME280;66633;47.628;19.158;2023-06-22T02:10:18;99938.97;;;29.34;48.23
77521;BME280;66633;47.628;19.158;2023-06-22T02:12:45;99938.97;;;29.34;48.23
77521;BME280;66633;47.628;19.158;2023-06-22T02:15:13;99938.97;;;29.34;48.23
77521;BME280;66633;47.628;19.158;2023-06-22T02:17:39;99938.97;;;29.34;48.23
77521;BME280;66633;47.628;19.158;2023-06-22T02:20:13;99938.97;;;29.34;48.23
77521;BME280;66633;47.628;19.158;2023-06-22T02:22:39;99938.97;;;29.34;48.23
77521;BME280;66633;47.628;19.158;2023-06-22T02:25:05;99938.97;;;29.34;48.23
77521;BME280;66633;47.628;19.158;2023-06-22T02:27:30;99938.97;;;29.34;48.23
77521;BME280;66633;47.628;19.158;2023-06-22T02:29:57;99938.97;;;29.34;48.23
77521;BME280;66633;47.628;19.158;2023-06-22T02:32:22;99938.97;;;29.34;48.23
77521;BME280;66633;47.628;19.158;2023-06-22T02:34:47;99938.97;;;29.34;48.23
77521;BME280;66633;47.628;19.158;2023-06-22T02:37:16;99938.97;;;29.34;48.23
77521;BME280;66633;47.628;19.158;2023-06-22T02:39:42;99938.97;;;29.34;48.23
77521;BME280;66633;47.628;19.158;2023-06-22T02:42:08;99938.97;;;29.34;48.23
77521;BME280;66633;47.628;19.158;2023-06-22T02:44:35;99938.97;;;29.34;48.23
77521;BME280;66633;47.628;19.158;2023-06-22T02:47:01;99938.97;;;29.34;48.23
77521;BME280;66633;47.628;19.158;2023-06-22T02:49:26;99938.97;;;29.34;48.23
77521;BME280;66633;47.628;19.158;2023-06-22T02:51:52;99938.97;;;29.34;48.23
77521;BME280;66633;47.628;19.158;2023-06-22T02:54:18;99938.97;;;29.34;48.23
77521;BME280;66633;47.628;19.158;2023-06-22T02:56:44;99938.97;;;29.34;48.23
77521;BME280;66633;47.628;19.158;2023-06-22T02:59:10;99938.97;;;29.34;48.23
77521;BME280;66633;47.628;19.158;2023-06-22T03:01:36;99938.97;;;29.34;48.23
77521;BME280;66633;47.628;19.158;2023-06-22T03:04:09;99938.97;;;29.34;48.23
77521;BME280;66633;47.628;19.158;2023-06-22T03:06:35;99938.97;;;29.34;48.23
77521;BME280;66633;47.628;19.158;2023-06-22T03:09:02;99938.97;;;29.34;48.23
77521;BME280;66633;47.628;19.158;2023-06-22T03:11:33;99938.97;;;29.34;48.23
77521;BME280;66633;47.628;19.158;2023-06-22T03:14:00;99938.97;;;29.34;48.23
77521;BME280;66633;47.628;19.158;2023-06-22T03:16:25;99938.97;;;29.34;48.23
77521;BME280;66633;47.628;19.158;2023-06-22T03:18:51;99938.97;;;29.34;48.23
77521;BME280;66633;47.628;19.158;2023-06-22T03:21:16;99938.97;;;29.34;48.23
77521;BME280;66633;47.628;19.158;2023-06-22T03:23:42;99938.97;;;29.34;48.23
77521;BME280;66633;47.628;19.158;2023-06-22T03:26:09;99938.97;;;29.34;48.23
77521;BME280;66633;47.628;19.158;2023-06-22T03:28:35;99938.97;;;29.34;48.23
77521;BME280;66633;47.628;19.158;2023-06-22T03:31:00;99938.97;;;29.34;48.23
77521;BME280;66633;47.628;19.158;2023-06-22T03:33:26;99938.97;;;29.34;48.23
77521;BME280;66633;47.628;19.158;2023-06-22T03:35:51;99938.97;;;29.34;48.23
77521;BME280;66633;47.628;19.158;2023-06-22T03:38:17;99938.97;;;29.34;48.23
77521;BME280;66633;47.628;19.158;2023-06-22T03:40:43;99938.97;;;29.34;48.23
77521;BME280;66633;47.628;19.158;2023-06-22T03:43:08;99938.97;;;29.34;48.23
77521;BME280;66633;47.628;19.158;2023-06-22T03:45:34;99938.97;;;29.34;48.23
77521;BME280;66633;47.628;19.158;2023-06-22T03:48:00;99938.97;;;29.34;48.23
77521;BME280;66633;47.628;19.158;2023-06-22T03:50:26;99938.97;;;29.34;48.23
77521;BME280;66633;47.628;19.158;2023-06-22T03:52:51;99938.97;;;29.34;48.23
77521;BME280;66633;47.628;19.158;2023-06-22T03:55:19;99938.97;;;29.34;48.23
77521;BME280;66633;47.628;19.158;2023-06-22T03:57:44;99938.97;;;29.34;48.23
77521;BME280;66633;47.628;19.158;2023-06-22T04:00:10;99938.97;;;29.34;48.23
77521;BME280;66633;47.628;19.158;2023-06-22T04:02:36;99938.97;;;29.34;48.23
77521;BME280;66633;47.628;19.158;2023-06-22T04:05:01;99938.97;;;29.34;48.23
77521;BME280;66633;47.628;19.158;2023-06-22T04:07:27;99938.97;;;29.34;48.23
77521;BME280;66633;47.628;19.158;2023-06-22T04:09:52;99938.97;;;29.34;48.23
77521;BME280;66633;47.628;19.158;2023-06-22T04:12:18;99938.97;;;29.34;48.23
77521;BME280;66633;47.628;19.158;2023-06-22T04:14:43;99938.97;;;29.34;48.23
77521;BME280;66633;47.628;19.158;2023-06-22T04:17:08;99938.97;;;29.34;48.23
77521;BME280;66633;47.628;19.158;2023-06-22T04:19:34;99938.97;;;29.34;48.23
77521;BME280;66633;47.628;19.158;2023-06-22T04:21:59;99938.97;;;29.34;48.23
77521;BME280;66633;47.628;19.158;2023-06-22T04:24:25;99938.97;;;29.34;48.23
77521;BME280;66633;47.628;19.158;2023-06-22T04:26:50;99938.97;;;29.34;48.23
77521;BME280;66633;47.628;19.158;2023-06-22T04:29:20;99938.97;;;29.34;48.23
77521;BME280;66633;47.628;19.158;2023-06-22T04:31:46;99938.97;;;29.34;48.23
77521;BME280;66633;47.628;19.158;2023-06-22T04:34:16;99938.97;;;29.34;48.23
77521;BME280;66633;47.628;19.158;2023-06-22T04:36:42;99938.97;;;29.34;48.23
77521;BME280;66633;47.628;19.158;2023-06-22T04:39:09;99938.97;;;29.34;48.23
77521;BME280;66633;47.628;19.158;2023-06-22T04:41:40;99938.97;;;29.34;48.23
77521;BME280;66633;47.628;19.158;2023-06-22T04:44:18;99938.97;;;29.34;48.23
77521;BME280;66633;47.628;19.158;2023-06-22T04:46:50;99938.97;;;29.34;48.23
77521;BME280;66633;47.628;19.158;2023-06-22T04:49:20;99938.97;;;29.34;48.23
77521;BME280;66633;47.628;19.158;2023-06-22T04:51:47;99938.97;;;29.34;48.23
77521;BME280;66633;47.628;19.158;2023-06-22T04:54:12;99938.97;;;29.34;48.23
77521;BME280;66633;47.628;19.158;2023-06-22T04:56:38;99938.97;;;29.34;48.23
77521;BME280;66633;47.628;19.158;2023-06-22T04:59:06;99938.97;;;29.34;48.23
77521;BME280;66633;47.628;19.158;2023-06-22T05:01:31;99938.97;;;29.34;48.23
77521;BME280;66633;47.628;19.158;2023-06-22T05:03:57;99938.97;;;29.34;48.23
77521;BME280;66633;47.628;19.158;2023-06-22T05:06:23;99938.97;;;29.34;48.23
77521;BME280;66633;47.628;19.158;2023-06-22T05:08:56;99938.97;;;29.34;48.23
77521;BME280;66633;47.628;19.158;2023-06-22T05:11:25;99938.97;;;29.34;48.23
77521;BME280;66633;47.628;19.158;2023-06-22T05:13:51;99938.97;;;29.34;48.23
77521;BME280;66633;47.628;19.158;2023-06-22T05:16:17;99938.97;;;29.34;48.23
77521;BME280;66633;47.628;19.158;2023-06-22T05:18:42;99938.97;;;29.34;48.23
77521;BME280;66633;47.628;19.158;2023-06-22T05:21:08;99938.97;;;29.34;48.23
77521;BME280;66633;47.628;19.158;2023-06-22T05:23:34;99938.97;;;29.34;48.23
77521;BME280;66633;47.628;19.158;2023-06-22T05:26:00;99938.97;;;29.34;48.23
77521;BME280;66633;47.628;19.158;2023-06-22T05:28:25;99938.97;;;29.34;48.23
77521;BME280;66633;47.628;19.158;2023-06-22T05:30:51;99938.97;;;29.34;48.23
77521;BME280;66633;47.628;19.158;2023-06-22T05:33:16;99938.97;;;29.34;48.23
77521;BME280;66633;47.628;19.158;2023-06-22T05:35:41;99938.97;;;29.34;48.23
77521;BME280;66633;47.628;19.158;2023-06-22T05:38:07;99938.97;;;29.34;48.23
77521;BME280;66633;47.628;19.158;2023-06-22T05:40:33;99938.97;;;29.34;48.23
77521;BME280;66633;47.628;19.158;2023-06-22T05:42:58;99938.97;;;29.34;48.23
77521;BME280;66633;47.628;19.158;2023-06-22T05:45:25;99938.97;;;29.34;48.23
77521;BME280;66633;47.628;19.158;2023-06-22T05:47:51;99938.97;;;29.34;48.23
77521;BME280;66633;47.628;19.158;2023-06-22T05:50:16;99938.97;;;29.34;48.23
77521;BME280;66633;47.628;19.158;2023-06-22T05:52:42;99938.97;;;29.34;48.23
77521;BME280;66633;47.628;19.158;2023-06-22T05:55:08;99938.97;;;29.34;48.23
77521;BME280;66633;47.628;19.158;2023-06-22T05:57:33;99938.97;;;29.34;48.23
77521;BME280;66633;47.628;19.158;2023-06-22T05:59:58;99938.97;;;29.34;48.23
77521;BME280;66633;47.628;19.158;2023-06-22T06:02:24;99938.97;;;29.34;48.23
77521;BME280;66633;47.628;19.158;2023-06-22T06:04:50;99938.97;;;29.34;48.23
77521;BME280;66633;47.628;19.158;2023-06-22T06:07:18;99938.97;;;29.34;48.23
77521;BME280;66633;47.628;19.158;2023-06-22T06:09:43;99938.97;;;29.34;48.23
77521;BME280;66633;47.628;19.158;2023-06-22T06:12:09;99938.97;;;29.34;48.23
77521;BME280;66633;47.628;19.158;2023-06-22T06:14:35;99938.97;;;29.34;48.23
77521;BME280;66633;47.628;19.158;2023-06-22T06:17:00;99938.97;;;29.34;48.23
77521;BME280;66633;47.628;19.158;2023-06-22T06:19:25;99938.97;;;29.34;48.23
77521;BME280;66633;47.628;19.158;2023-06-22T06:21:51;99938.97;;;29.34;48.23
77521;BME280;66633;47.628;19.158;2023-06-22T06:24:16;99938.97;;;29.34;48.23
77521;BME280;66633;47.628;19.158;2023-06-22T06:26:42;99938.97;;;29.34;48.23
77521;BME280;66633;47.628;19.158;2023-06-22T06:29:07;99938.97;;;29.34;48.23
77521;BME280;66633;47.628;19.158;2023-06-22T06:31:32;99938.97;;;29.34;48.23
77521;BME280;66633;47.628;19.158;2023-06-22T06:33:58;99938.97;;;29.34;48.23
77521;BME280;66633;47.628;19.158;2023-06-22T06:36:23;99938.97;;;29.34;48.23
77521;BME280;66633;47.628;19.158;2023-06-22T06:38:49;99938.97;;;29.34;48.23
77521;BME280;66633;47.628;19.158;2023-06-22T06:41:15;99938.97;;;29.34;48.23
77521;BME280;66633;47.628;19.158;2023-06-22T06:43:41;99938.97;;;29.34;48.23
77521;BME280;66633;47.628;19.158;2023-06-22T06:46:08;99938.97;;;29.34;48.23
77521;BME280;66633;47.628;19.158;2023-06-22T06:48:34;99938.97;;;29.34;48.23
77521;BME280;66633;47.628;19.158;2023-06-22T06:54:21;99938.97;;;29.34;48.23
77521;BME280;66633;47.628;19.158;2023-06-22T06:56:50;99938.97;;;29.34;48.23
77521;BME280;66633;47.628;19.158;2023-06-22T06:59:15;99938.97;;;29.34;48.23
77521;BME280;66633;47.628;19.158;2023-06-22T07:01:41;99938.97;;;29.34;48.23
77521;BME280;66633;47.628;19.158;2023-06-22T07:04:09;99938.97;;;29.34;48.23
77521;BME280;66633;47.628;19.158;2023-06-22T07:06:34;99938.97;;;29.34;48.23
77521;BME280;66633;47.628;19.158;2023-06-22T07:09:00;99938.97;;;29.34;48.23
77521;BME280;66633;47.628;19.158;2023-06-22T07:11:26;99938.97;;;29.34;48.23
77521;BME280;66633;47.628;19.158;2023-06-22T07:13:51;99938.97;;;29.34;48.23
77521;BME280;66633;47.628;19.158;2023-06-22T07:16:17;99938.97;;;29.34;48.23
77521;BME280;66633;47.628;19.158;2023-06-22T07:18:43;99938.97;;;29.34;48.23
77521;BME280;66633;47.628;19.158;2023-06-22T07:21:08;99938.97;;;29.34;48.23
77521;BME280;66633;47.628;19.158;2023-06-22T07:23:34;99938.97;;;29.34;48.23
77521;BME280;66633;47.628;19.158;2023-06-22T07:26:00;99938.97;;;29.34;48.23
77521;BME280;66633;47.628;19.158;2023-06-22T07:28:27;99938.97;;;29.34;48.23
77521;BME280;66633;47.628;19.158;2023-06-22T07:30:56;99938.97;;;29.34;48.23
77521;BME280;66633;47.628;19.158;2023-06-22T07:33:21;99938.97;;;29.34;48.23
77521;BME280;66633;47.628;19.158;2023-06-22T07:35:47;99938.97;;;29.34;48.23
77521;BME280;66633;47.628;19.158;2023-06-22T07:38:13;99938.97;;;29.34;48.23
77521;BME280;66633;47.628;19.158;2023-06-22T07:40:39;99938.97;;;29.34;48.23
77521;BME280;66633;47.628;19.158;2023-06-22T07:43:07;99938.97;;;29.34;48.23
77521;BME280;66633;47.628;19.158;2023-06-22T07:45:32;99938.97;;;29.34;48.23
77521;BME280;66633;47.628;19.158;2023-06-22T07:48:00;99938.97;;;29.34;48.23
77521;BME280;66633;47.628;19.158;2023-06-22T07:50:25;99938.97;;;29.34;48.23
77521;BME280;66633;47.628;19.158;2023-06-22T07:52:51;99938.97;;;29.34;48.23
77521;BME280;66633;47.628;19.158;2023-06-22T07:55:18;99938.97;;;29.34;48.23
77521;BME280;66633;47.628;19.158;2023-06-22T07:57:43;99938.97;;;29.34;48.23
77521;BME280;66633;47.628;19.158;2023-06-22T08:00:09;99938.97;;;29.34;48.23
77521;BME280;66633;47.628;19.158;2023-06-22T08:02:40;99938.97;;;29.34;48.23
77521;BME280;66633;47.628;19.158;2023-06-22T08:05:10;99938.97;;;29.34;48.23
77521;BME280;66633;47.628;19.158;2023-06-22T08:07:36;99938.97;;;29.34;48.23
77521;BME280;66633;47.628;19.158;2023-06-22T08:10:03;99938.97;;;29.34;48.23
77521;BME280;66633;47.628;19.158;2023-06-22T08:12:29;99938.97;;;29.34;48.23
77521;BME280;66633;47.628;19.158;2023-06-22T08:14:54;99938.97;;;29.34;48.23
77521;BME280;66633;47.628;19.158;2023-06-22T08:17:22;99938.97;;;29.34;48.23
77521;BME280;66633;47.628;19.158;2023-06-22T08:19:48;99938.97;;;29.34;48.23
77521;BME280;66633;47.628;19.158;2023-06-22T08:22:13;99938.97;;;29.34;48.23
77521;BME280;66633;47.628;19.158;2023-06-22T08:24:38;99938.97;;;29.34;48.23
77521;BME280;66633;47.628;19.158;2023-06-22T08:27:07;99938.97;;;29.34;48.23
77521;BME280;66633;47.628;19.158;2023-06-22T08:29:34;99938.97;;;29.34;48.23
77521;BME280;66633;47.628;19.158;2023-06-22T08:31:59;99938.97;;;29.34;48.23
77521;BME280;66633;47.628;19.158;2023-06-22T08:34:24;99938.97;;;29.34;48.23
77521;BME280;66633;47.628;19.158;2023-06-22T08:36:50;99938.97;;;29.34;48.23
77521;BME280;66633;47.628;19.158;2023-06-22T08:39:17;99938.97;;;29.34;48.23
77521;BME280;66633;47.628;19.158;2023-06-22T08:41:43;99938.97;;;29.34;48.23
77521;BME280;66633;47.628;19.158;2023-06-22T08:44:08;99938.97;;;29.34;48.23
77521;BME280;66633;47.628;19.158;2023-06-22T08:46:34;99938.97;;;29.34;48.23
77521;BME280;66633;47.628;19.158;2023-06-22T08:48:59;99938.97;;;29.34;48.23
77521;BME280;66633;47.628;19.158;2023-06-22T08:51:25;99938.97;;;29.34;48.23
77521;BME280;66633;47.628;19.158;2023-06-22T08:53:50;99938.97;;;29.34;48.23
77521;BME280;66633;47.628;19.158;2023-06-22T08:56:16;99938.97;;;29.34;48.23
77521;BME280;66633;47.628;19.158;2023-06-22T08:58:41;99938.97;;;29.34;48.23
77521;BME280;66633;47.628;19.158;2023-06-22T09:01:06;99938.97;;;29.34;48.23
77521;BME280;66633;47.628;19.158;2023-06-22T09:03:32;99938.97;;;29.34;48.23
77521;BME280;66633;47.628;19.158;2023-06-22T09:05:58;99938.97;;;29.34;48.23
77521;BME280;66633;47.628;19.158;2023-06-22T09:08:24;99938.97;;;29.34;48.23
77521;BME280;66633;47.628;19.158;2023-06-22T09:10:49;99938.97;;;29.34;48.23
77521;BME280;66633;47.628;19.158;2023-06-22T09:13:14;99938.97;;;29.34;48.23
77521;BME280;66633;47.628;19.158;2023-06-22T09:15:40;99938.97;;;29.34;48.23
77521;BME280;66633;47.628;19.158;2023-06-22T09:18:05;99938.97;;;29.34;48.23
77521;BME280;66633;47.628;19.158;2023-06-22T09:20:31;99938.97;;;29.34;48.23
77521;BME280;66633;47.628;19.158;2023-06-22T09:22:56;99938.97;;;29.34;48.23
77521;BME280;66633;47.628;19.158;2023-06-22T09:25:22;99938.97;;;29.34;48.23
77521;BME280;66633;47.628;19.158;2023-06-22T09:27:47;99938.97;;;29.34;48.23
77521;BME280;66633;47.628;19.158;2023-06-22T09:30:13;99938.97;;;29.34;48.23
77521;BME280;66633;47.628;19.158;2023-06-22T09:32:38;99938.97;;;29.34;48.23
77521;BME280;66633;47.628;19.158;2023-06-22T09:35:05;100085.41;;;30.37;44.09
77521;BME280;66633;47.628;19.158;2023-06-22T09:37:34;100086.75;;;30.34;42.22
77521;BME280;66633;47.628;19.158;2023-06-22T09:40:01;100087.88;;;30.43;42.84
77521;BME280;66633;47.628;19.158;2023-06-22T09:42:26;100088.22;;;30.62;43.13
77521;BME280;66633;47.628;19.158;2023-06-22T09:44:52;100086.84;;;30.74;42.30
77521;BME280;66633;47.628;19.158;2023-06-22T09:47:17;100087.13;;;30.73;42.41
77521;BME280;66633;47.628;19.158;2023-06-22T09:49:42;100097.81;;;30.69;41.74
77521;BME280;66633;47.628;19.158;2023-06-22T09:52:08;100091.25;;;30.80;42.46
77521;BME280;66633;47.628;19.158;2023-06-22T09:54:33;100088.50;;;30.70;40.94
77521;BME280;66633;47.628;19.158;2023-06-22T09:56:59;100085.19;;;30.68;41.80
77521;BME280;66633;47.628;19.158;2023-06-22T09:59:24;100088.00;;;30.88;41.15
77521;BME280;66633;47.628;19.158;2023-06-22T10:01:49;100087.13;;;30.73;41.81
77521;BME280;66633;47.628;19.158;2023-06-22T10:04:15;100085.19;;;30.68;41.35
77521;BME280;66633;47.628;19.158;2023-06-22T10:06:40;100089.88;;;30.78;41.27
77521;BME280;66633;47.628;19.158;2023-06-22T10:09:07;100086.03;;;30.84;41.84
77521;BME280;66633;47.628;19.158;2023-06-22T10:11:33;100084.97;;;31.05;42.04
77521;BME280;66633;47.628;19.158;2023-06-22T10:14:00;100085.81;;;31.16;41.26
77521;BME280;66633;47.628;19.158;2023-06-22T10:16:30;100084.44;;;31.28;39.77
77521;BME280;66633;47.628;19.158;2023-06-22T10:18:56;100078.94;;;31.03;39.65
77521;BME280;66633;47.628;19.158;2023-06-22T10:21:21;100084.19;;;31.05;40.50
77521;BME280;66633;47.628;19.158;2023-06-22T10:23:46;100071.25;;;31.10;40.83
77521;BME280;66633;47.628;19.158;2023-06-22T10:26:12;100078.41;;;31.06;40.06
77521;BME280;66633;47.628;19.158;2023-06-22T10:28:38;100079.50;;;31.05;40.60
77521;BME280;66633;47.628;19.158;2023-06-22T10:31:03;100074.00;;;30.95;40.64
77521;BME280;66633;47.628;19.158;2023-06-22T10:33:28;100075.13;;;31.19;40.20
77521;BME280;66633;47.628;19.158;2023-06-22T10:35:54;100068.78;;;31.14;40.52
77521;BME280;66633;47.628;19.158;2023-06-22T10:38:20;100065.50;;;31.07;40.80
77521;BME280;66633;47.628;19.158;2023-06-22T10:40:46;100063.84;;;31.26;41.19
77521;BME280;66633;47.628;19.158;2023-06-22T10:43:11;100070.97;;;31.32;39.27
77521;BME280;66633;47.628;19.158;2023-06-22T10:45:36;100070.69;;;31.28;39.34
77521;BME280;66633;47.628;19.158;2023-06-22T10:48:02;100065.47;;;31.37;40.13
77521;BME280;66633;47.628;19.158;2023-06-22T10:50:27;100061.91;;;31.46;40.36
77521;BME280;66633;47.628;19.158;2023-06-22T10:52:54;100057.50;;;31.45;39.87
77521;BME280;66633;47.628;19.158;2023-06-22T10:55:19;100048.16;;;31.46;39.83
77521;BME280;66633;47.628;19.158;2023-06-22T10:57:45;100054.50;;;31.42;38.47
77521;BME280;66633;47.628;19.158;2023-06-22T11:00:13;100056.69;;;31.45;37.92
77521;BME280;66633;47.628;19.158;2023-06-22T11:02:39;100065.50;;;31.42;38.01
77521;BME280;66633;47.628;19.158;2023-06-22T11:05:04;100057.50;;;31.45;37.79
77521;BME280;66633;47.628;19.158;2023-06-22T11:07:30;100056.41;;;31.41;38.97
77521;BME280;66633;47.628;19.158;2023-06-22T11:09:56;100061.09;;;31.41;38.80
77521;BME280;66633;47.628;19.158;2023-06-22T11:12:21;100052.84;;;31.36;38.16
77521;BME280;66633;47.628;19.158;2023-06-22T11:14:47;100049.25;;;31.50;38.80
77521;BME280;66633;47.628;19.158;2023-06-22T11:17:12;100055.28;;;31.62;37.86
77521;BME280;66633;47.628;19.158;2023-06-22T11:19:38;100050.88;;;31.51;38.04
77521;BME280;66633;47.628;19.158;2023-06-22T11:22:03;100048.97;;;31.52;39.25
77521;BME280;66633;47.628;19.158;2023-06-22T11:24:29;100051.41;;;31.68;39.16
77521;BME280;66633;47.628;19.158;2023-06-22T11:26:54;100042.91;;;31.60;38.57
77521;BME280;66633;47.628;19.158;2023-06-22T11:29:20;100043.22;;;31.13;38.01
77521;BME280;66633;47.628;19.158;2023-06-22T11:31:45;100035.81;;;31.19;38.54
77521;BME280;66633;47.628;19.158;2023-06-22T11:34:10;100045.97;;;31.38;38.55
77521;BME280;66633;47.628;19.158;2023-06-22T11:36:36;100042.94;;;31.45;38.25
77521;BME280;66633;47.628;19.158;2023-06-22T11:39:02;100042.94;;;31.45;39.27
77521;BME280;66633;47.628;19.158;2023-06-22T11:41:27;100040.47;;;31.43;39.39
77521;BME280;66633;47.628;19.158;2023-06-22T11:43:52;100028.06;;;31.56;40.97
77521;BME280;66633;47.628;19.158;2023-06-22T11:46:18;100032.72;;;31.65;38.40
77521;BME280;66633;47.628;19.158;2023-06-22T11:48:43;100027.44;;;31.79;38.43
77521;BME280;66633;47.628;19.158;2023-06-22T11:51:08;100030.72;;;31.86;40.18
77521;BME280;66633;47.628;19.158;2023-06-22T11:53:34;100030.94;;;32.05;38.12
77521;BME280;66633;47.628;19.158;2023-06-22T11:56:00;100021.69;;;31.75;37.08
77521;BME280;66633;47.628;19.158;2023-06-22T11:58:26;100024.66;;;31.94;38.56
77521;BME280;66633;47.628;19.158;2023-06-22T12:00:51;100027.13;;;31.91;39.22
77521;BME280;66633;47.628;19.158;2023-06-22T12:03:17;100023.28;;;31.97;39.18
77521;BME280;66633;47.628;19.158;2023-06-22T12:05:43;100032.31;;;32.07;38.48
77521;BME280;66633;47.628;19.158;2023-06-22T12:08:09;100021.56;;;32.11;37.77
77521;BME280;66633;47.628;19.158;2023-06-22T12:10:34;100025.53;;;31.74;39.63
77521;BME280;66633;47.628;19.158;2023-06-22T12:13:00;100022.78;;;31.80;39.14
77521;BME280;66633;47.628;19.158;2023-06-22T12:15:26;100017.50;;;31.93;39.46
77521;BME280;66633;47.628;19.158;2023-06-22T12:17:51;100020.53;;;32.02;39.28
77521;BME280;66633;47.628;19.158;2023-06-22T12:20:16;100006.69;;;32.12;39.39
77521;BME280;66633;47.628;19.158;2023-06-22T12:22:42;100006.13;;;32.15;38.12
77521;BME280;66633;47.628;19.158;2023-06-22T12:25:08;100002.50;;;32.24;38.49
77521;BME280;66633;47.628;19.158;2023-06-22T12:27:35;99996.16;;;32.29;38.48
77521;BME280;66633;47.628;19.158;2023-06-22T12:30:01;99991.81;;;32.13;38.55
77521;BME280;66633;47.628;19.158;2023-06-22T12:32:26;99990.47;;;32.10;39.10
77521;BME280;66633;47.628;19.158;2023-06-22T12:34:52;99987.13;;;32.18;38.75
77521;BME280;66633;47.628;19.158;2023-06-22T12:37:18;99985.44;;;32.22;38.98
77521;BME280;66633;47.628;19.158;2023-06-22T12:39:43;99990.59;;;32.34;38.67
77521;BME280;66633;47.628;19.158;2023-06-22T12:42:09;99984.00;;;32.35;38.11
77521;BME280;66633;47.628;19.158;2023-06-22T12:44:35;99973.75;;;32.40;37.68
77521;BME280;66633;47.628;19.158;2023-06-22T12:47:00;99988.97;;;32.72;37.31
77521;BME280;66633;47.628;19.158;2023-06-22T12:49:26;99984.72;;;32.84;36.61
77521;BME280;66633;47.628;19.158;2023-06-22T12:51:51;99981.00;;;32.70;37.34
77521;BME280;66633;47.628;19.158;2023-06-22T12:54:17;99985.31;;;32.81;37.23
77521;BME280;66633;47.628;19.158;2023-06-22T12:56:43;99970.16;;;32.84;36.85
77521;BME280;66633;47.628;19.158;2023-06-22T12:59:10;99975.06;;;32.87;37.50